sensor_id;sensor_type;location;lat;lon;timestamp;P1;durP1;ratioP1;P2;durP2;ratioP2
62994;SDS011;49086;52.300;4.850;2022-08-20T00:01:05;7.63;;;3.15;;
62994;SDS011;49086;52.300;4.850;2022-08-20T00:03:53;9.65;;;2.95;;
62994;SDS011;49086;52.300;4.850;2022-08-20T00:07:19;7.13;;;2.85;;
62994;SDS011;49086;52.300;4.850;2022-08-20T00:10:12;5.97;;;2.55;;
62994;SDS011;49086;52.300;4.850;2022-08-20T00:12:48;7.95;;;2.55;;
62994;SDS011;49086;52.300;4.850;2022-08-20T00:15:35;7.88;;;3.03;;
62994;SDS011;49086;52.300;4.850;2022-08-20T00:18:27;5.97;;;2.88;;
62994;SDS011;49086;52.300;4.850;2022-08-20T00:20:58;7.55;;;2.85;;
62994;SDS011;49086;52.300;4.850;2022-08-20T00:23:31;12.50;;;3.13;;
62994;SDS011;49086;52.300;4.850;2022-08-20T00:26:23;9.25;;;3.00;;
62994;SDS011;49086;52.300;4.850;2022-08-20T00:29:01;9.25;;;2.70;;
62994;SDS011;49086;52.300;4.850;2022-08-20T00:31:50;5.63;;;2.20;;
62994;SDS011;49086;52.300;4.850;2022-08-20T00:34:28;8.82;;;2.67;;
62994;SDS011;49086;52.300;4.850;2022-08-20T00:37:01;7.03;;;2.47;;
62994;SDS011;49086;52.300;4.850;2022-08-20T00:39:58;5.90;;;2.30;;
62994;SDS011;49086;52.300;4.850;2022-08-20T00:45:55;7.25;;;2.60;;
62994;SDS011;49086;52.300;4.850;2022-08-20T00:48:24;5.22;;;2.47;;
62994;SDS011;49086;52.300;4.850;2022-08-20T00:51:52;10.63;;;2.55;;
62994;SDS011;49086;52.300;4.850;2022-08-20T00:54:42;7.22;;;2.50;;
62994;SDS011;49086;52.300;4.850;2022-08-20T01:00:49;5.85;;;2.10;;
62994;SDS011;49086;52.300;4.850;2022-08-20T01:03:23;6.22;;;2.10;;
62994;SDS011;49086;52.300;4.850;2022-08-20T01:05:53;7.85;;;1.95;;
62994;SDS011;49086;52.300;4.850;2022-08-20T01:08:45;7.03;;;1.98;;
62994;SDS011;49086;52.300;4.850;2022-08-20T01:11:23;5.80;;;2.30;;
62994;SDS011;49086;52.300;4.850;2022-08-20T01:14:12;7.60;;;2.60;;
62994;SDS011;49086;52.300;4.850;2022-08-20T01:16:51;14.35;;;2.80;;
62994;SDS011;49086;52.300;4.850;2022-08-20T01:19:56;6.97;;;2.08;;
62994;SDS011;49086;52.300;4.850;2022-08-20T01:23:06;7.28;;;2.38;;
62994;SDS011;49086;52.300;4.850;2022-08-20T01:29:36;6.53;;;2.25;;
62994;SDS011;49086;52.300;4.850;2022-08-20T01:32:41;5.43;;;2.08;;
62994;SDS011;49086;52.300;4.850;2022-08-20T01:35:07;6.55;;;2.78;;
62994;SDS011;49086;52.300;4.850;2022-08-20T01:37:53;5.70;;;2.35;;
62994;SDS011;49086;52.300;4.850;2022-08-20T01:40:26;7.15;;;2.20;;
62994;SDS011;49086;52.300;4.850;2022-08-20T01:43:40;9.32;;;2.25;;
62994;SDS011;49086;52.300;4.850;2022-08-20T01:46:41;7.82;;;2.45;;
62994;SDS011;49086;52.300;4.850;2022-08-20T01:49:45;4.53;;;2.20;;
62994;SDS011;49086;52.300;4.850;2022-08-20T01:52:23;7.50;;;2.38;;
62994;SDS011;49086;52.300;4.850;2022-08-20T01:55:13;6.72;;;2.30;;
62994;SDS011;49086;52.300;4.850;2022-08-20T01:58:01;6.55;;;2.00;;
62994;SDS011;49086;52.300;4.850;2022-08-20T02:00:36;6.00;;;2.30;;
62994;SDS011;49086;52.300;4.850;2022-08-20T02:03:31;6.55;;;2.30;;
62994;SDS011;49086;52.300;4.850;2022-08-20T02:06:17;6.45;;;2.30;;
62994;SDS011;49086;52.300;4.850;2022-08-20T02:08:54;6.63;;;2.35;;
62994;SDS011;49086;52.300;4.850;2022-08-20T02:11:42;8.73;;;2.08;;
62994;SDS011;49086;52.300;4.850;2022-08-20T02:14:41;8.55;;;2.53;;
62994;SDS011;49086;52.300;4.850;2022-08-20T02:17:34;6.80;;;2.20;;
62994;SDS011;49086;52.300;4.850;2022-08-20T02:20:28;5.03;;;2.08;;
62994;SDS011;49086;52.300;4.850;2022-08-20T02:22:57;9.30;;;2.70;;
62994;SDS011;49086;52.300;4.850;2022-08-20T02:25:59;7.47;;;2.40;;
62994;SDS011;49086;52.300;4.850;2022-08-20T02:28:34;7.65;;;2.28;;
62994;SDS011;49086;52.300;4.850;2022-08-20T02:31:11;9.05;;;2.20;;
62994;SDS011;49086;52.300;4.850;2022-08-20T02:33:53;7.30;;;1.92;;
62994;SDS011;49086;52.300;4.850;2022-08-20T02:36:18;8.00;;;2.10;;
62994;SDS011;49086;52.300;4.850;2022-08-20T02:38:45;6.05;;;2.17;;
62994;SDS011;49086;52.300;4.850;2022-08-20T02:41:15;5.32;;;2.22;;
62994;SDS011;49086;52.300;4.850;2022-08-20T02:46:56;7.05;;;2.35;;
62994;SDS011;49086;52.300;4.850;2022-08-20T02:49:32;9.30;;;2.60;;
62994;SDS011;49086;52.300;4.850;2022-08-20T02:52:07;8.90;;;2.50;;
62994;SDS011;49086;52.300;4.850;2022-08-20T02:55:09;10.80;;;2.30;;
62994;SDS011;49086;52.300;4.850;2022-08-20T02:58:15;6.50;;;2.28;;
62994;SDS011;49086;52.300;4.850;2022-08-20T03:01:10;7.85;;;2.47;;
62994;SDS011;49086;52.300;4.850;2022-08-20T03:04:05;11.40;;;2.40;;
62994;SDS011;49086;52.300;4.850;2022-08-20T03:06:35;6.40;;;2.00;;
62994;SDS011;49086;52.300;4.850;2022-08-20T03:09:06;7.88;;;2.30;;
62994;SDS011;49086;52.300;4.850;2022-08-20T03:11:59;6.88;;;2.50;;
62994;SDS011;49086;52.300;4.850;2022-08-20T03:14:38;4.88;;;2.08;;
62994;SDS011;49086;52.300;4.850;2022-08-20T03:17:28;5.82;;;2.22;;
62994;SDS011;49086;52.300;4.850;2022-08-20T03:20:10;8.20;;;2.40;;
62994;SDS011;49086;52.300;4.850;2022-08-20T03:23:07;7.25;;;2.60;;
62994;SDS011;49086;52.300;4.850;2022-08-20T03:28:40;4.90;;;2.00;;
62994;SDS011;49086;52.300;4.850;2022-08-20T03:31:28;9.90;;;2.53;;
62994;SDS011;49086;52.300;4.850;2022-08-20T03:34:18;5.68;;;2.25;;
62994;SDS011;49086;52.300;4.850;2022-08-20T03:37:09;6.55;;;2.60;;
62994;SDS011;49086;52.300;4.850;2022-08-20T03:39:41;5.15;;;2.17;;
62994;SDS011;49086;52.300;4.850;2022-08-20T03:42:17;5.93;;;2.05;;
62994;SDS011;49086;52.300;4.850;2022-08-20T03:44:47;9.65;;;2.60;;
62994;SDS011;49086;52.300;4.850;2022-08-20T03:47:54;6.85;;;2.28;;
62994;SDS011;49086;52.300;4.850;2022-08-20T03:50:35;9.55;;;2.63;;
62994;SDS011;49086;52.300;4.850;2022-08-20T03:53:09;8.90;;;2.40;;
62994;SDS011;49086;52.300;4.850;2022-08-20T03:55:51;9.45;;;2.67;;
62994;SDS011;49086;52.300;4.850;2022-08-20T03:58:40;8.70;;;2.88;;
62994;SDS011;49086;52.300;4.850;2022-08-20T04:01:06;6.57;;;2.65;;
62994;SDS011;49086;52.300;4.850;2022-08-20T04:03:31;8.05;;;3.08;;
62994;SDS011;49086;52.300;4.850;2022-08-20T04:06:00;6.28;;;3.20;;
62994;SDS011;49086;52.300;4.850;2022-08-20T04:12:20;7.60;;;2.80;;
62994;SDS011;49086;52.300;4.850;2022-08-20T04:15:01;11.63;;;3.30;;
62994;SDS011;49086;52.300;4.850;2022-08-20T04:18:09;6.97;;;2.97;;
62994;SDS011;49086;52.300;4.850;2022-08-20T04:24:28;6.65;;;2.67;;
62994;SDS011;49086;52.300;4.850;2022-08-20T04:27:03;9.15;;;2.92;;
62994;SDS011;49086;52.300;4.850;2022-08-20T04:29:39;11.13;;;2.97;;
62994;SDS011;49086;52.300;4.850;2022-08-20T04:32:41;10.00;;;4.05;;
62994;SDS011;49086;52.300;4.850;2022-08-20T04:35:37;8.57;;;2.78;;
62994;SDS011;49086;52.300;4.850;2022-08-20T04:38:24;10.25;;;3.13;;
62994;SDS011;49086;52.300;4.850;2022-08-20T04:41:38;8.85;;;3.58;;
62994;SDS011;49086;52.300;4.850;2022-08-20T04:44:12;11.02;;;3.63;;
62994;SDS011;49086;52.300;4.850;2022-08-20T04:49:48;11.40;;;3.45;;
62994;SDS011;49086;52.300;4.850;2022-08-20T04:52:22;9.15;;;3.45;;
62994;SDS011;49086;52.300;4.850;2022-08-20T04:55:15;8.10;;;3.40;;
62994;SDS011;49086;52.300;4.850;2022-08-20T04:57:42;10.15;;;3.53;;
62994;SDS011;49086;52.300;4.850;2022-08-20T05:00:26;9.52;;;3.53;;
62994;SDS011;49086;52.300;4.850;2022-08-20T05:03:17;10.00;;;3.55;;
62994;SDS011;49086;52.300;4.850;2022-08-20T05:06:13;8.38;;;3.55;;
62994;SDS011;49086;52.300;4.850;2022-08-20T05:09:29;12.45;;;3.50;;
62994;SDS011;49086;52.300;4.850;2022-08-20T05:12:18;8.88;;;3.33;;
62994;SDS011;49086;52.300;4.850;2022-08-20T05:14:48;5.60;;;3.47;;
62994;SDS011;49086;52.300;4.850;2022-08-20T05:17:34;8.05;;;3.33;;
62994;SDS011;49086;52.300;4.850;2022-08-20T05:20:03;8.57;;;3.20;;
62994;SDS011;49086;52.300;4.850;2022-08-20T05:22:51;12.57;;;3.35;;
62994;SDS011;49086;52.300;4.850;2022-08-20T05:25:22;5.70;;;2.93;;
62994;SDS011;49086;52.300;4.850;2022-08-20T05:27:59;9.02;;;3.40;;
62994;SDS011;49086;52.300;4.850;2022-08-20T05:31:08;9.48;;;3.47;;
62994;SDS011;49086;52.300;4.850;2022-08-20T05:33:56;8.68;;;3.38;;
62994;SDS011;49086;52.300;4.850;2022-08-20T05:36:49;7.25;;;3.10;;
62994;SDS011;49086;52.300;4.850;2022-08-20T05:39:56;6.88;;;3.22;;
62994;SDS011;49086;52.300;4.850;2022-08-20T05:42:47;8.25;;;4.38;;
62994;SDS011;49086;52.300;4.850;2022-08-20T05:45:35;11.57;;;3.28;;
62994;SDS011;49086;52.300;4.850;2022-08-20T05:48:20;8.77;;;3.70;;
62994;SDS011;49086;52.300;4.850;2022-08-20T05:50:50;7.13;;;3.33;;
62994;SDS011;49086;52.300;4.850;2022-08-20T05:53:36;9.02;;;4.30;;
62994;SDS011;49086;52.300;4.850;2022-08-20T05:56:12;10.15;;;4.00;;
62994;SDS011;49086;52.300;4.850;2022-08-20T05:59:03;9.35;;;3.88;;
62994;SDS011;49086;52.300;4.850;2022-08-20T06:01:41;8.88;;;4.18;;
62994;SDS011;49086;52.300;4.850;2022-08-20T06:04:26;11.38;;;4.70;;
62994;SDS011;49086;52.300;4.850;2022-08-20T06:07:25;10.02;;;3.97;;
62994;SDS011;49086;52.300;4.850;2022-08-20T06:10:17;7.43;;;3.55;;
62994;SDS011;49086;52.300;4.850;2022-08-20T06:12:46;8.48;;;3.40;;
62994;SDS011;49086;52.300;4.850;2022-08-20T06:15:19;8.93;;;3.30;;
62994;SDS011;49086;52.300;4.850;2022-08-20T06:17:50;7.90;;;3.22;;
62994;SDS011;49086;52.300;4.850;2022-08-20T06:20:36;10.77;;;3.70;;
62994;SDS011;49086;52.300;4.850;2022-08-20T06:23:08;8.60;;;3.35;;
62994;SDS011;49086;52.300;4.850;2022-08-20T06:25:34;10.52;;;3.70;;
62994;SDS011;49086;52.300;4.850;2022-08-20T06:28:02;8.35;;;3.30;;
62994;SDS011;49086;52.300;4.850;2022-08-20T06:30:55;8.40;;;2.42;;
62994;SDS011;49086;52.300;4.850;2022-08-20T06:33:58;10.85;;;2.97;;
62994;SDS011;49086;52.300;4.850;2022-08-20T06:36:27;9.18;;;2.53;;
62994;SDS011;49086;52.300;4.850;2022-08-20T06:38:53;10.85;;;2.65;;
62994;SDS011;49086;52.300;4.850;2022-08-20T06:41:24;5.40;;;2.25;;
62994;SDS011;49086;52.300;4.850;2022-08-20T06:44:00;11.50;;;3.50;;
62994;SDS011;49086;52.300;4.850;2022-08-20T06:46:53;8.85;;;2.38;;
62994;SDS011;49086;52.300;4.850;2022-08-20T06:49:22;7.25;;;2.40;;
62994;SDS011;49086;52.300;4.850;2022-08-20T06:52:02;8.77;;;2.28;;
62994;SDS011;49086;52.300;4.850;2022-08-20T06:54:35;10.95;;;2.60;;
62994;SDS011;49086;52.300;4.850;2022-08-20T06:57:08;6.97;;;2.40;;
62994;SDS011;49086;52.300;4.850;2022-08-20T06:59:36;8.27;;;2.20;;
62994;SDS011;49086;52.300;4.850;2022-08-20T07:02:37;6.15;;;2.50;;
62994;SDS011;49086;52.300;4.850;2022-08-20T07:05:11;7.60;;;2.47;;
62994;SDS011;49086;52.300;4.850;2022-08-20T07:07:59;9.73;;;2.70;;
62994;SDS011;49086;52.300;4.850;2022-08-20T07:10:49;9.68;;;2.17;;
62994;SDS011;49086;52.300;4.850;2022-08-20T07:13:40;6.13;;;2.17;;
62994;SDS011;49086;52.300;4.850;2022-08-20T07:16:10;6.97;;;2.28;;
62994;SDS011;49086;52.300;4.850;2022-08-20T07:18:53;8.82;;;2.50;;
62994;SDS011;49086;52.300;4.850;2022-08-20T07:21:31;8.25;;;1.98;;
62994;SDS011;49086;52.300;4.850;2022-08-20T07:24:00;7.15;;;1.70;;
62994;SDS011;49086;52.300;4.850;2022-08-20T07:26:29;9.80;;;1.75;;
62994;SDS011;49086;52.300;4.850;2022-08-20T07:29:17;8.48;;;2.13;;
62994;SDS011;49086;52.300;4.850;2022-08-20T07:31:51;10.50;;;2.15;;
62994;SDS011;49086;52.300;4.850;2022-08-20T07:34:34;7.22;;;1.83;;
62994;SDS011;49086;52.300;4.850;2022-08-20T07:37:09;8.88;;;2.50;;
62994;SDS011;49086;52.300;4.850;2022-08-20T07:39:49;14.15;;;2.58;;
62994;SDS011;49086;52.300;4.850;2022-08-20T07:42:40;7.90;;;2.80;;
62994;SDS011;49086;52.300;4.850;2022-08-20T07:45:28;8.05;;;2.17;;
62994;SDS011;49086;52.300;4.850;2022-08-20T07:48:49;12.20;;;2.33;;
62994;SDS011;49086;52.300;4.850;2022-08-20T07:51:19;10.18;;;2.15;;
62994;SDS011;49086;52.300;4.850;2022-08-20T07:54:28;7.20;;;2.15;;
62994;SDS011;49086;52.300;4.850;2022-08-20T07:57:07;5.72;;;2.28;;
62994;SDS011;49086;52.300;4.850;2022-08-20T07:59:53;8.75;;;2.00;;
62994;SDS011;49086;52.300;4.850;2022-08-20T08:02:23;7.35;;;2.42;;
62994;SDS011;49086;52.300;4.850;2022-08-20T08:05:17;7.70;;;2.97;;
62994;SDS011;49086;52.300;4.850;2022-08-20T08:07:48;7.75;;;2.38;;
62994;SDS011;49086;52.300;4.850;2022-08-20T08:10:42;9.48;;;2.00;;
62994;SDS011;49086;52.300;4.850;2022-08-20T08:13:10;8.65;;;2.35;;
62994;SDS011;49086;52.300;4.850;2022-08-20T08:15:59;5.05;;;1.75;;
62994;SDS011;49086;52.300;4.850;2022-08-20T08:18:35;10.18;;;1.92;;
62994;SDS011;49086;52.300;4.850;2022-08-20T08:21:20;7.95;;;2.45;;
62994;SDS011;49086;52.300;4.850;2022-08-20T08:23:47;9.93;;;2.85;;
62994;SDS011;49086;52.300;4.850;2022-08-20T08:26:14;8.68;;;1.95;;
62994;SDS011;49086;52.300;4.850;2022-08-20T08:29:10;7.68;;;2.08;;
62994;SDS011;49086;52.300;4.850;2022-08-20T08:31:36;5.72;;;1.65;;
62994;SDS011;49086;52.300;4.850;2022-08-20T08:34:16;6.18;;;1.90;;
62994;SDS011;49086;52.300;4.850;2022-08-20T08:36:50;7.47;;;1.70;;
62994;SDS011;49086;52.300;4.850;2022-08-20T08:39:52;8.63;;;1.60;;
62994;SDS011;49086;52.300;4.850;2022-08-20T08:42:39;7.13;;;1.50;;
62994;SDS011;49086;52.300;4.850;2022-08-20T08:45:09;4.75;;;1.70;;
62994;SDS011;49086;52.300;4.850;2022-08-20T08:47:37;10.07;;;2.08;;
62994;SDS011;49086;52.300;4.850;2022-08-20T08:50:29;7.80;;;1.60;;
62994;SDS011;49086;52.300;4.850;2022-08-20T08:53:14;8.93;;;1.60;;
62994;SDS011;49086;52.300;4.850;2022-08-20T08:56:28;6.80;;;1.52;;
62994;SDS011;49086;52.300;4.850;2022-08-20T08:59:24;5.90;;;1.80;;
62994;SDS011;49086;52.300;4.850;2022-08-20T09:01:56;7.95;;;1.90;;
62994;SDS011;49086;52.300;4.850;2022-08-20T09:04:44;4.88;;;1.30;;
62994;SDS011;49086;52.300;4.850;2022-08-20T09:07:16;8.13;;;1.30;;
62994;SDS011;49086;52.300;4.850;2022-08-20T09:09:44;8.13;;;1.75;;
62994;SDS011;49086;52.300;4.850;2022-08-20T09:12:16;7.63;;;1.70;;
62994;SDS011;49086;52.300;4.850;2022-08-20T09:14:47;8.75;;;1.40;;
62994;SDS011;49086;52.300;4.850;2022-08-20T09:17:36;6.72;;;2.25;;
62994;SDS011;49086;52.300;4.850;2022-08-20T09:20:02;7.10;;;1.83;;
62994;SDS011;49086;52.300;4.850;2022-08-20T09:22:35;9.55;;;1.50;;
62994;SDS011;49086;52.300;4.850;2022-08-20T09:25:27;5.88;;;1.30;;
62994;SDS011;49086;52.300;4.850;2022-08-20T09:27:54;6.88;;;1.60;;
62994;SDS011;49086;52.300;4.850;2022-08-20T09:30:21;5.38;;;1.58;;
62994;SDS011;49086;52.300;4.850;2022-08-20T09:32:50;10.05;;;1.65;;
62994;SDS011;49086;52.300;4.850;2022-08-20T09:35:27;7.90;;;1.75;;
62994;SDS011;49086;52.300;4.850;2022-08-20T09:38:07;9.65;;;1.63;;
62994;SDS011;49086;52.300;4.850;2022-08-20T09:40:54;6.07;;;1.60;;
62994;SDS011;49086;52.300;4.850;2022-08-20T09:43:21;7.20;;;1.40;;
62994;SDS011;49086;52.300;4.850;2022-08-20T09:45:47;6.03;;;1.85;;
62994;SDS011;49086;52.300;4.850;2022-08-20T09:48:42;9.27;;;1.73;;
62994;SDS011;49086;52.300;4.850;2022-08-20T09:51:13;7.47;;;1.70;;
62994;SDS011;49086;52.300;4.850;2022-08-20T09:53:39;6.10;;;1.70;;
62994;SDS011;49086;52.300;4.850;2022-08-20T09:56:05;7.03;;;1.60;;
62994;SDS011;49086;52.300;4.850;2022-08-20T10:01:51;6.53;;;1.52;;
62994;SDS011;49086;52.300;4.850;2022-08-20T10:04:17;5.63;;;1.55;;
62994;SDS011;49086;52.300;4.850;2022-08-20T10:06:45;5.60;;;1.67;;
62994;SDS011;49086;52.300;4.850;2022-08-20T10:09:12;5.88;;;1.40;;
62994;SDS011;49086;52.300;4.850;2022-08-20T10:11:45;8.00;;;1.90;;
62994;SDS011;49086;52.300;4.850;2022-08-20T10:14:10;5.28;;;1.38;;
62994;SDS011;49086;52.300;4.850;2022-08-20T10:16:43;6.85;;;1.45;;
62994;SDS011;49086;52.300;4.850;2022-08-20T10:19:12;8.25;;;1.80;;
62994;SDS011;49086;52.300;4.850;2022-08-20T10:21:37;6.60;;;1.35;;
62994;SDS011;49086;52.300;4.850;2022-08-20T10:24:25;6.00;;;1.77;;
62994;SDS011;49086;52.300;4.850;2022-08-20T10:26:59;10.05;;;2.00;;
62994;SDS011;49086;52.300;4.850;2022-08-20T10:29:32;5.22;;;1.70;;
62994;SDS011;49086;52.300;4.850;2022-08-20T10:32:09;6.43;;;2.03;;
62994;SDS011;49086;52.300;4.850;2022-08-20T10:34:44;11.38;;;1.70;;
62994;SDS011;49086;52.300;4.850;2022-08-20T10:37:35;9.93;;;1.98;;
62994;SDS011;49086;52.300;4.850;2022-08-20T10:40:04;6.00;;;1.40;;
62994;SDS011;49086;52.300;4.850;2022-08-20T10:42:55;6.20;;;1.60;;
62994;SDS011;49086;52.300;4.850;2022-08-20T10:45:23;5.82;;;1.60;;
62994;SDS011;49086;52.300;4.850;2022-08-20T10:47:59;9.10;;;1.85;;
62994;SDS011;49086;52.300;4.850;2022-08-20T10:50:48;7.38;;;1.63;;
62994;SDS011;49086;52.300;4.850;2022-08-20T10:53:34;7.05;;;1.58;;
62994;SDS011;49086;52.300;4.850;2022-08-20T10:56:24;7.25;;;1.60;;
62994;SDS011;49086;52.300;4.850;2022-08-20T10:58:52;6.60;;;1.80;;
62994;SDS011;49086;52.300;4.850;2022-08-20T11:01:27;8.95;;;1.75;;
62994;SDS011;49086;52.300;4.850;2022-08-20T11:03:52;8.63;;;1.60;;
62994;SDS011;49086;52.300;4.850;2022-08-20T11:06:18;7.32;;;1.80;;
62994;SDS011;49086;52.300;4.850;2022-08-20T11:08:50;5.47;;;1.70;;
62994;SDS011;49086;52.300;4.850;2022-08-20T11:11:44;6.50;;;1.88;;
62994;SDS011;49086;52.300;4.850;2022-08-20T11:16:53;7.00;;;1.75;;
62994;SDS011;49086;52.300;4.850;2022-08-20T11:19:23;5.95;;;1.20;;
62994;SDS011;49086;52.300;4.850;2022-08-20T11:22:12;11.43;;;2.00;;
62994;SDS011;49086;52.300;4.850;2022-08-20T11:24:59;7.50;;;1.70;;
62994;SDS011;49086;52.300;4.850;2022-08-20T11:27:47;9.30;;;1.90;;
62994;SDS011;49086;52.300;4.850;2022-08-20T11:30:21;6.15;;;1.70;;
62994;SDS011;49086;52.300;4.850;2022-08-20T11:33:06;8.88;;;1.90;;
62994;SDS011;49086;52.300;4.850;2022-08-20T11:36:06;5.70;;;1.35;;
62994;SDS011;49086;52.300;4.850;2022-08-20T11:38:33;10.95;;;1.70;;
62994;SDS011;49086;52.300;4.850;2022-08-20T11:41:02;9.95;;;2.03;;
62994;SDS011;49086;52.300;4.850;2022-08-20T11:43:29;6.63;;;1.83;;
62994;SDS011;49086;52.300;4.850;2022-08-20T11:45:58;7.55;;;1.80;;
62994;SDS011;49086;52.300;4.850;2022-08-20T11:48:38;4.43;;;1.38;;
62994;SDS011;49086;52.300;4.850;2022-08-20T11:51:07;8.65;;;2.20;;
62994;SDS011;49086;52.300;4.850;2022-08-20T11:54:18;6.03;;;1.50;;
62994;SDS011;49086;52.300;4.850;2022-08-20T11:57:26;7.75;;;1.77;;
62994;SDS011;49086;52.300;4.850;2022-08-20T11:59:54;6.15;;;1.80;;
62994;SDS011;49086;52.300;4.850;2022-08-20T12:02:30;8.07;;;1.90;;
62994;SDS011;49086;52.300;4.850;2022-08-20T12:05:10;5.88;;;1.65;;
62994;SDS011;49086;52.300;4.850;2022-08-20T12:10:51;4.88;;;1.70;;
62994;SDS011;49086;52.300;4.850;2022-08-20T12:13:44;6.45;;;1.75;;
62994;SDS011;49086;52.300;4.850;2022-08-20T12:16:17;6.05;;;1.55;;
62994;SDS011;49086;52.300;4.850;2022-08-20T12:19:09;7.63;;;1.87;;
62994;SDS011;49086;52.300;4.850;2022-08-20T12:21:41;8.13;;;1.75;;
62994;SDS011;49086;52.300;4.850;2022-08-20T12:24:10;7.40;;;2.47;;
62994;SDS011;49086;52.300;4.850;2022-08-20T12:26:46;7.70;;;1.77;;
62994;SDS011;49086;52.300;4.850;2022-08-20T12:29:13;7.47;;;2.13;;
62994;SDS011;49086;52.300;4.850;2022-08-20T12:32:24;7.70;;;1.80;;
62994;SDS011;49086;52.300;4.850;2022-08-20T12:35:16;6.95;;;1.90;;
62994;SDS011;49086;52.300;4.850;2022-08-20T12:38:10;10.15;;;1.95;;
62994;SDS011;49086;52.300;4.850;2022-08-20T12:40:49;9.65;;;1.95;;
62994;SDS011;49086;52.300;4.850;2022-08-20T12:43:38;10.60;;;2.03;;
62994;SDS011;49086;52.300;4.850;2022-08-20T12:46:14;7.35;;;1.60;;
62994;SDS011;49086;52.300;4.850;2022-08-20T12:48:46;9.00;;;2.10;;
62994;SDS011;49086;52.300;4.850;2022-08-20T12:51:34;9.10;;;2.05;;
62994;SDS011;49086;52.300;4.850;2022-08-20T12:54:30;8.00;;;1.90;;
62994;SDS011;49086;52.300;4.850;2022-08-20T12:57:01;4.45;;;1.80;;
62994;SDS011;49086;52.300;4.850;2022-08-20T12:59:51;6.70;;;2.17;;
62994;SDS011;49086;52.300;4.850;2022-08-20T13:02:19;6.63;;;1.83;;
62994;SDS011;49086;52.300;4.850;2022-08-20T13:04:45;7.57;;;1.90;;
62994;SDS011;49086;52.300;4.850;2022-08-20T13:07:18;5.97;;;1.55;;
62994;SDS011;49086;52.300;4.850;2022-08-20T13:10:12;7.88;;;1.60;;
62994;SDS011;49086;52.300;4.850;2022-08-20T13:13:13;7.32;;;1.50;;
62994;SDS011;49086;52.300;4.850;2022-08-20T13:16:20;9.20;;;1.70;;
62994;SDS011;49086;52.300;4.850;2022-08-20T13:18:57;4.95;;;1.42;;
62994;SDS011;49086;52.300;4.850;2022-08-20T13:21:28;8.15;;;1.90;;
62994;SDS011;49086;52.300;4.850;2022-08-20T13:24:14;6.90;;;1.67;;
62994;SDS011;49086;52.300;4.850;2022-08-20T13:26:40;5.55;;;1.88;;
62994;SDS011;49086;52.300;4.850;2022-08-20T13:29:13;8.20;;;1.85;;
62994;SDS011;49086;52.300;4.850;2022-08-20T13:31:46;8.35;;;1.90;;
62994;SDS011;49086;52.300;4.850;2022-08-20T13:34:15;9.60;;;2.57;;
62994;SDS011;49086;52.300;4.850;2022-08-20T13:37:13;7.75;;;1.75;;
62994;SDS011;49086;52.300;4.850;2022-08-20T13:39:53;8.05;;;1.95;;
62994;SDS011;49086;52.300;4.850;2022-08-20T13:42:42;10.07;;;2.38;;
62994;SDS011;49086;52.300;4.850;2022-08-20T13:45:13;8.85;;;2.10;;
62994;SDS011;49086;52.300;4.850;2022-08-20T13:47:50;10.00;;;2.17;;
62994;SDS011;49086;52.300;4.850;2022-08-20T13:50:23;5.43;;;1.90;;
62994;SDS011;49086;52.300;4.850;2022-08-20T13:53:24;8.57;;;2.03;;
62994;SDS011;49086;52.300;4.850;2022-08-20T13:56:31;6.63;;;1.75;;
62994;SDS011;49086;52.300;4.850;2022-08-20T13:59:02;5.38;;;1.77;;
62994;SDS011;49086;52.300;4.850;2022-08-20T14:01:29;6.75;;;2.08;;
62994;SDS011;49086;52.300;4.850;2022-08-20T14:03:56;6.57;;;1.67;;
62994;SDS011;49086;52.300;4.850;2022-08-20T14:06:26;6.32;;;1.90;;
62994;SDS011;49086;52.300;4.850;2022-08-20T14:08:57;7.45;;;1.67;;
62994;SDS011;49086;52.300;4.850;2022-08-20T14:11:31;9.82;;;2.08;;
62994;SDS011;49086;52.300;4.850;2022-08-20T14:13:56;7.28;;;1.77;;
62994;SDS011;49086;52.300;4.850;2022-08-20T14:16:33;5.57;;;1.63;;
62994;SDS011;49086;52.300;4.850;2022-08-20T14:19:01;6.43;;;2.05;;
62994;SDS011;49086;52.300;4.850;2022-08-20T14:21:30;5.35;;;1.88;;
62994;SDS011;49086;52.300;4.850;2022-08-20T14:24:00;3.75;;;1.48;;
62994;SDS011;49086;52.300;4.850;2022-08-20T14:26:28;5.40;;;2.08;;
62994;SDS011;49086;52.300;4.850;2022-08-20T14:28:59;4.93;;;1.55;;
62994;SDS011;49086;52.300;4.850;2022-08-20T14:31:31;4.60;;;1.58;;
62994;SDS011;49086;52.300;4.850;2022-08-20T14:34:07;6.88;;;1.52;;
62994;SDS011;49086;52.300;4.850;2022-08-20T14:36:33;9.25;;;1.80;;
62994;SDS011;49086;52.300;4.850;2022-08-20T14:39:07;9.05;;;1.80;;
62994;SDS011;49086;52.300;4.850;2022-08-20T14:41:58;4.53;;;1.38;;
62994;SDS011;49086;52.300;4.850;2022-08-20T14:44:49;6.20;;;1.42;;
62994;SDS011;49086;52.300;4.850;2022-08-20T14:47:44;5.88;;;1.75;;
62994;SDS011;49086;52.300;4.850;2022-08-20T14:50:20;8.90;;;1.60;;
62994;SDS011;49086;52.300;4.850;2022-08-20T14:52:59;6.32;;;1.70;;
62994;SDS011;49086;52.300;4.850;2022-08-20T14:55:29;7.78;;;1.63;;
62994;SDS011;49086;52.300;4.850;2022-08-20T14:58:06;7.85;;;1.63;;
62994;SDS011;49086;52.300;4.850;2022-08-20T15:00:36;6.07;;;2.13;;
62994;SDS011;49086;52.300;4.850;2022-08-20T15:03:26;5.53;;;1.67;;
62994;SDS011;49086;52.300;4.850;2022-08-20T15:05:56;7.25;;;1.67;;
62994;SDS011;49086;52.300;4.850;2022-08-20T15:08:27;3.15;;;1.10;;
62994;SDS011;49086;52.300;4.850;2022-08-20T15:11:14;6.68;;;2.17;;
62994;SDS011;49086;52.300;4.850;2022-08-20T15:13:42;3.50;;;1.20;;
62994;SDS011;49086;52.300;4.850;2022-08-20T15:16:17;5.22;;;1.50;;
62994;SDS011;49086;52.300;4.850;2022-08-20T15:19:03;4.50;;;1.40;;
62994;SDS011;49086;52.300;4.850;2022-08-20T15:22:10;7.35;;;1.83;;
62994;SDS011;49086;52.300;4.850;2022-08-20T15:24:47;6.75;;;1.42;;
62994;SDS011;49086;52.300;4.850;2022-08-20T15:27:44;7.88;;;1.50;;
62994;SDS011;49086;52.300;4.850;2022-08-20T15:30:14;10.52;;;1.70;;
62994;SDS011;49086;52.300;4.850;2022-08-20T15:33:08;4.40;;;1.42;;
62994;SDS011;49086;52.300;4.850;2022-08-20T15:35:37;4.65;;;1.58;;
62994;SDS011;49086;52.300;4.850;2022-08-20T15:38:03;6.32;;;1.70;;
62994;SDS011;49086;52.300;4.850;2022-08-20T15:40:52;6.55;;;1.60;;
62994;SDS011;49086;52.300;4.850;2022-08-20T15:43:42;5.97;;;1.55;;
62994;SDS011;49086;52.300;4.850;2022-08-20T15:46:23;6.30;;;1.73;;
62994;SDS011;49086;52.300;4.850;2022-08-20T15:49:18;3.28;;;1.40;;
62994;SDS011;49086;52.300;4.850;2022-08-20T15:52:10;5.28;;;1.70;;
62994;SDS011;49086;52.300;4.850;2022-08-20T15:54:38;7.55;;;1.48;;
62994;SDS011;49086;52.300;4.850;2022-08-20T15:58:08;5.93;;;1.25;;
62994;SDS011;49086;52.300;4.850;2022-08-20T16:00:36;4.95;;;1.60;;
62994;SDS011;49086;52.300;4.850;2022-08-20T16:12:16;8.00;;;1.30;;
62994;SDS011;49086;52.300;4.850;2022-08-20T16:17:54;7.53;;;2.55;;
62994;SDS011;49086;52.300;4.850;2022-08-20T16:20:38;14.82;;;4.03;;
62994;SDS011;49086;52.300;4.850;2022-08-20T16:23:13;6.95;;;2.85;;
62994;SDS011;49086;52.300;4.850;2022-08-20T16:26:09;5.18;;;1.23;;
62994;SDS011;49086;52.300;4.850;2022-08-20T16:29:11;6.43;;;1.80;;
62994;SDS011;49086;52.300;4.850;2022-08-20T16:31:53;5.45;;;1.50;;
62994;SDS011;49086;52.300;4.850;2022-08-20T16:34:30;4.35;;;1.20;;
62994;SDS011;49086;52.300;4.850;2022-08-20T16:42:42;6.60;;;2.67;;
62994;SDS011;49086;52.300;4.850;2022-08-20T16:45:19;5.15;;;1.40;;
62994;SDS011;49086;52.300;4.850;2022-08-20T16:48:19;6.00;;;1.73;;
62994;SDS011;49086;52.300;4.850;2022-08-20T16:51:02;5.82;;;1.95;;
62994;SDS011;49086;52.300;4.850;2022-08-20T16:53:51;6.28;;;1.38;;
62994;SDS011;49086;52.300;4.850;2022-08-20T16:56:29;3.78;;;1.20;;
62994;SDS011;49086;52.300;4.850;2022-08-20T16:59:21;4.53;;;1.40;;
62994;SDS011;49086;52.300;4.850;2022-08-20T17:02:32;4.85;;;1.30;;
62994;SDS011;49086;52.300;4.850;2022-08-20T17:05:12;6.28;;;1.63;;